createdAt,value
2023-03-29T00:00:47.719Z,73.8664
2023-03-29T00:01:48.544Z,73.6578
2023-03-29T00:02:49.604Z,75.3774
2023-03-29T00:03:50.603Z,76.6466
2023-03-29T00:04:51.358Z,77.2992
2023-03-29T00:05:52.150Z,78.7750
2023-03-29T00:06:52.960Z,80.5386
2023-03-29T00:07:53.759Z,82.0754
2023-03-29T00:08:54.556Z,81.6969
2023-03-29T00:09:55.349Z,82.9802
2023-03-29T00:10:56.180Z,83.8107
2023-03-29T00:11:57.021Z,83.3834
2023-03-29T00:12:57.838Z,83.9744
2023-03-29T00:13:58.631Z,81.2566
2023-03-29T00:14:59.419Z,79.0522
2023-03-29T00:16:00.196Z,80.2896
2023-03-29T00:17:01.425Z,79.2929
2023-03-29T00:18:02.326Z,78.1433
2023-03-29T00:20:03.870Z,77.8897
2023-03-29T00:22:05.795Z,78.0524
2023-03-29T00:23:06.598Z,77.9410
2023-03-29T00:24:07.430Z,77.5349
2023-03-29T00:25:08.216Z,76.9992
2023-03-29T00:26:09.025Z,76.7408
2023-03-29T00:27:09.839Z,76.9277
2023-03-29T00:28:10.640Z,78.3847
2023-03-29T00:29:11.471Z,79.8069
2023-03-29T00:30:12.283Z,76.8183
2023-03-29T00:31:13.236Z,78.3665
2023-03-29T00:32:14.037Z,75.8090
2023-03-29T00:33:14.928Z,76.1000
2023-03-29T00:34:15.736Z,73.0877
2023-03-29T00:35:16.579Z,70.5851
2023-03-29T00:36:17.406Z,73.9006
2023-03-29T00:37:18.248Z,74.8905
2023-03-29T00:38:19.057Z,73.6094
2023-03-29T00:39:19.841Z,73.8945
2023-03-29T00:40:20.666Z,72.1044
2023-03-29T00:41:21.471Z,74.5275
2023-03-29T00:42:22.305Z,75.1117
2023-03-29T00:43:23.138Z,74.3843
2023-03-29T00:44:23.943Z,71.3702
2023-03-29T00:45:24.751Z,70.4859
2023-03-29T00:46:25.686Z,69.2090
2023-03-29T00:47:26.683Z,70.9220
2023-03-29T00:48:27.449Z,71.8706
2023-03-29T00:49:28.243Z,71.1736
2023-03-29T00:51:29.795Z,73.1277
2023-03-29T00:52:30.559Z,73.2026
2023-03-29T00:53:31.364Z,73.6641
2023-03-29T00:54:32.168Z,74.4697
2023-03-29T00:55:32.958Z,73.3017
2023-03-29T00:56:33.753Z,72.8201
2023-03-29T00:57:34.525Z,71.2994
2023-03-29T00:58:35.361Z,70.3269
2023-03-29T00:59:36.162Z,70.2705
2023-03-29T01:00:36.968Z,72.4814
2023-03-29T01:01:37.765Z,71.7477
2023-03-29T01:02:38.835Z,70.4996
2023-03-29T01:03:39.936Z,68.3709
2023-03-29T01:04:40.775Z,68.1001
2023-03-29T01:05:41.623Z,68.5932
2023-03-29T01:06:42.493Z,67.7176
2023-03-29T01:07:43.313Z,68.2283
2023-03-29T01:08:44.105Z,69.3732
2023-03-29T01:10:45.623Z,69.2314
2023-03-29T01:11:46.391Z,69.6760
2023-03-29T01:12:47.233Z,70.3605
2023-03-29T01:13:48.021Z,70.4562
2023-03-29T01:14:49.064Z,71.0345
2023-03-29T01:15:49.847Z,70.8852
2023-03-29T01:16:50.722Z,70.4641
2023-03-29T01:17:51.592Z,72.6247
2023-03-29T01:18:52.353Z,71.9848
2023-03-29T01:19:53.135Z,71.7074
2023-03-29T01:20:53.926Z,69.3828
2023-03-29T01:21:54.757Z,69.2874
2023-03-29T01:22:55.573Z,69.0149
2023-03-29T01:23:56.403Z,67.4829
2023-03-29T01:24:57.184Z,68.3890
2023-03-29T01:25:58.070Z,69.3220
2023-03-29T01:26:58.850Z,70.1888
2023-03-29T01:27:59.719Z,70.5547
2023-03-29T01:29:00.503Z,69.5758
2023-03-29T01:30:01.413Z,70.3908
2023-03-29T01:31:02.844Z,70.8913
2023-03-29T01:32:04.220Z,70.8696
2023-03-29T01:33:05.100Z,69.3481
2023-03-29T01:34:05.920Z,68.2580
2023-03-29T01:36:07.473Z,70.3365
2023-03-29T01:38:09.010Z,71.7602
2023-03-29T01:39:09.796Z,73.4975
2023-03-29T01:40:10.607Z,73.2466
2023-03-29T01:41:11.426Z,70.1510
2023-03-29T01:42:12.240Z,68.8548
2023-03-29T01:43:13.391Z,69.2381
2023-03-29T01:44:14.567Z,70.4884
2023-03-29T01:45:15.650Z,69.4146
2023-03-29T01:46:16.511Z,69.7041
2023-03-29T01:47:17.377Z,68.8659
2023-03-29T01:48:18.190Z,68.3231
2023-03-29T01:49:19.001Z,69.1892
2023-03-29T01:50:19.834Z,67.9672
2023-03-29T01:51:20.667Z,70.3329
2023-03-29T01:52:21.488Z,69.9808
2023-03-29T01:53:22.364Z,70.2914
2023-03-29T01:54:23.174Z,69.3400
2023-03-29T01:55:23.998Z,70.6887
2023-03-29T01:56:24.790Z,70.6292
2023-03-29T01:57:25.795Z,69.2575
2023-03-29T01:59:27.283Z,70.8297
2023-03-29T02:00:28.093Z,71.3865
2023-03-29T02:01:29.095Z,68.5912
2023-03-29T02:02:30.102Z,71.9790
2023-03-29T02:03:31.456Z,72.3408
2023-03-29T02:04:32.430Z,71.8202
2023-03-29T02:05:33.230Z,71.4136
2023-03-29T02:06:34.006Z,69.7049
2023-03-29T02:07:34.821Z,71.2489
2023-03-29T02:08:35.709Z,73.0843
2023-03-29T02:09:36.513Z,70.8193
2023-03-29T02:10:37.286Z,69.9609
2023-03-29T02:11:38.129Z,69.1301
2023-03-29T02:12:38.921Z,73.4689
2023-03-29T02:13:39.780Z,70.9698
2023-03-29T02:14:40.729Z,69.8177
2023-03-29T02:15:41.589Z,70.0526
2023-03-29T02:16:42.468Z,72.6693
2023-03-29T02:17:43.339Z,75.5992
2023-03-29T02:18:44.217Z,74.3373
2023-03-29T02:20:45.722Z,72.1174
2023-03-29T02:21:46.525Z,76.9039
2023-03-29T02:22:47.361Z,76.4195
2023-03-29T02:23:48.180Z,75.6031
2023-03-29T02:24:49.017Z,77.1683
2023-03-29T02:25:49.873Z,73.8165
2023-03-29T02:26:50.819Z,69.8916
2023-03-29T02:27:51.619Z,70.5167
2023-03-29T02:28:52.444Z,72.5372
2023-03-29T02:29:53.288Z,74.5820
2023-03-29T02:30:54.143Z,76.5820
2023-03-29T02:31:54.933Z,74.5202
2023-03-29T02:32:55.861Z,74.3045
2023-03-29T02:33:56.697Z,73.4040
2023-03-29T02:35:58.302Z,72.7481
2023-03-29T02:37:59.758Z,74.6532
2023-03-29T02:39:00.607Z,74.3857
2023-03-29T02:40:01.457Z,70.5770
2023-03-29T02:41:02.841Z,71.0373
2023-03-29T02:42:03.886Z,70.0701
2023-03-29T02:43:04.690Z,69.9390
2023-03-29T02:44:05.510Z,73.8381
2023-03-29T02:45:06.316Z,75.9266
2023-03-29T02:46:07.196Z,77.4128
2023-03-29T02:47:08.020Z,75.1316
2023-03-29T02:48:08.921Z,76.4073
2023-03-29T02:49:09.771Z,76.2850
2023-03-29T02:50:10.619Z,77.4728
2023-03-29T02:51:11.438Z,74.4190
2023-03-29T02:52:12.280Z,78.4874
2023-03-29T02:53:13.113Z,75.9397
2023-03-29T02:54:13.921Z,75.5545
2023-03-29T02:55:14.711Z,71.9960
2023-03-29T02:56:15.516Z,73.1009
2023-03-29T02:57:16.566Z,76.9004
2023-03-29T02:58:17.362Z,78.4103
2023-03-29T02:59:18.181Z,78.4576
2023-03-29T03:00:19.005Z,79.4282
2023-03-29T03:01:19.852Z,76.4624
2023-03-29T03:02:20.832Z,78.3004
2023-03-29T03:03:21.798Z,78.8792
2023-03-29T03:04:22.608Z,77.6313
2023-03-29T03:05:23.446Z,77.1260
2023-03-29T03:06:25.329Z,77.7161
2023-03-29T03:07:26.165Z,79.4661
2023-03-29T03:08:26.958Z,79.3654
2023-03-29T03:09:27.838Z,72.9109
2023-03-29T03:10:28.674Z,73.9139
2023-03-29T03:11:29.436Z,75.7353
2023-03-29T03:13:31.000Z,73.4960
2023-03-29T03:15:32.516Z,74.2010
2023-03-29T03:17:34.121Z,76.2858
2023-03-29T03:18:34.934Z,79.6484
2023-03-29T03:19:35.756Z,78.8527
2023-03-29T03:20:36.594Z,77.9241
2023-03-29T03:21:37.386Z,79.2239
2023-03-29T03:22:38.182Z,79.7114
2023-03-29T03:24:39.715Z,76.5516
2023-03-29T03:25:40.521Z,75.0955
2023-03-29T03:26:41.379Z,74.8639
2023-03-29T03:27:42.188Z,77.3001
2023-03-29T03:28:42.993Z,77.2535
2023-03-29T03:29:43.886Z,75.7432
2023-03-29T03:30:44.999Z,74.2277
2023-03-29T03:31:45.824Z,69.8551
2023-03-29T03:32:46.699Z,68.5180
2023-03-29T03:33:47.514Z,71.4433
2023-03-29T03:34:48.370Z,71.7118
2023-03-29T03:35:49.235Z,72.3944
2023-03-29T03:36:50.029Z,72.2141
2023-03-29T03:37:50.871Z,74.6227
2023-03-29T03:38:51.715Z,75.4670
2023-03-29T03:39:52.443Z,74.5685
2023-03-29T03:40:53.349Z,72.6993
2023-03-29T03:41:54.188Z,71.8504
2023-03-29T03:42:55.129Z,71.9569
2023-03-29T03:43:56.262Z,74.0044
2023-03-29T03:44:57.308Z,73.9274
2023-03-29T03:45:58.337Z,73.0530
2023-03-29T03:46:59.124Z,74.1680
2023-03-29T03:48:00.014Z,72.9145
2023-03-29T03:49:00.820Z,75.3896
2023-03-29T03:50:01.658Z,76.2997
2023-03-29T03:51:03.063Z,77.8184
2023-03-29T03:52:04.017Z,75.9465
2023-03-29T03:53:04.757Z,76.4825
2023-03-29T03:54:05.625Z,74.2244
2023-03-29T03:55:06.362Z,75.9045
2023-03-29T03:57:08.047Z,73.6698
2023-03-29T03:58:08.798Z,73.0074
2023-03-29T03:59:09.596Z,73.9976
2023-03-29T04:00:10.417Z,76.0636
2023-03-29T04:01:11.173Z,73.2729
2023-03-29T04:02:11.988Z,71.8708
2023-03-29T04:03:13.025Z,71.7550
2023-03-29T04:05:14.838Z,74.2318
2023-03-29T04:06:15.647Z,75.5968
2023-03-29T04:07:16.432Z,73.4645
2023-03-29T04:09:18.037Z,74.5258
2023-03-29T04:10:18.865Z,74.4800
2023-03-29T04:11:19.710Z,75.4979
2023-03-29T04:12:20.517Z,76.8366
2023-03-29T04:13:21.378Z,71.2189
2023-03-29T04:14:22.174Z,69.7443
2023-03-29T04:16:23.802Z,71.9707
2023-03-29T04:17:24.792Z,73.0107
2023-03-29T04:18:25.892Z,69.7683
2023-03-29T04:19:26.747Z,71.9352
2023-03-29T04:20:27.520Z,71.8027
2023-03-29T04:21:28.362Z,71.4409
2023-03-29T04:22:29.156Z,71.9305
2023-03-29T04:23:29.985Z,70.9781
2023-03-29T04:24:30.817Z,69.8452
2023-03-29T04:25:31.617Z,71.0519
2023-03-29T04:26:32.377Z,70.5152
2023-03-29T04:27:33.228Z,71.2575
2023-03-29T04:28:34.017Z,66.5638
2023-03-29T04:29:34.822Z,67.3635
2023-03-29T04:30:35.635Z,66.9491
2023-03-29T04:31:36.534Z,67.4242
2023-03-29T04:33:38.036Z,68.2976
2023-03-29T04:35:39.552Z,68.4463
2023-03-29T04:36:40.315Z,68.9955
2023-03-29T04:37:42.121Z,69.9511
2023-03-29T04:38:48.104Z,71.8492
2023-03-29T04:39:44.688Z,71.5283
2023-03-29T04:41:46.215Z,70.8011
2023-03-29T04:42:47.005Z,70.7592
2023-03-29T04:43:47.810Z,69.1092
2023-03-29T04:44:48.680Z,69.0555
2023-03-29T04:45:49.554Z,69.4136
2023-03-29T04:46:50.568Z,67.2431
2023-03-29T04:47:51.424Z,68.7343
2023-03-29T04:48:52.202Z,70.0701
2023-03-29T04:49:53.062Z,71.4037
2023-03-29T04:50:53.906Z,69.8340
2023-03-29T04:51:54.753Z,68.0665
2023-03-29T04:52:55.554Z,64.1888
2023-03-29T04:53:56.322Z,64.4026
2023-03-29T04:54:57.113Z,63.6937
2023-03-29T04:55:57.919Z,61.5498
2023-03-29T04:56:58.780Z,60.1606
2023-03-29T04:57:59.561Z,60.3509
2023-03-29T04:59:00.406Z,60.7816
2023-03-29T05:00:01.215Z,60.6792
2023-03-29T05:01:03.026Z,60.2892
2023-03-29T05:02:04.235Z,60.5316
2023-03-29T05:03:05.142Z,61.8863
2023-03-29T05:05:06.756Z,61.2774
2023-03-29T05:06:07.956Z,61.3686
2023-03-29T05:07:08.776Z,62.5631
2023-03-29T05:09:10.371Z,62.9716
2023-03-29T05:10:11.257Z,63.3740
2023-03-29T05:11:12.124Z,61.7941
2023-03-29T05:12:12.957Z,61.3005
2023-03-29T05:13:13.766Z,61.3309
2023-03-29T05:14:14.534Z,60.9793
2023-03-29T05:15:15.459Z,61.5707
2023-03-29T05:16:16.322Z,62.5722
2023-03-29T05:18:18.295Z,62.4225
2023-03-29T05:19:19.328Z,61.0779
2023-03-29T05:21:20.943Z,62.1167
2023-03-29T05:22:21.812Z,62.5283
2023-03-29T05:23:22.661Z,61.1691
2023-03-29T05:24:23.541Z,63.6492
2023-03-29T05:25:24.283Z,63.4241
2023-03-29T05:26:25.085Z,63.8510
2023-03-29T05:27:25.878Z,63.9636
2023-03-29T05:28:26.653Z,64.3198
2023-03-29T05:29:27.446Z,63.1340
2023-03-29T05:30:28.236Z,62.9695
2023-03-29T05:32:29.861Z,63.5404
2023-03-29T05:34:31.410Z,62.6752
2023-03-29T05:35:32.317Z,60.9514
2023-03-29T05:36:33.132Z,61.6086
2023-03-29T05:37:33.884Z,63.4076
2023-03-29T05:38:34.670Z,66.7984
2023-03-29T05:39:37.982Z,66.1691
2023-03-29T05:40:36.647Z,65.1641
2023-03-29T05:41:37.447Z,62.9740
2023-03-29T05:42:38.246Z,62.3549
2023-03-29T05:43:38.978Z,63.5567
2023-03-29T05:44:39.735Z,62.4751
2023-03-29T05:45:40.950Z,61.9771
2023-03-29T05:46:41.702Z,63.8280
2023-03-29T05:47:42.567Z,64.1573
2023-03-29T05:49:44.053Z,64.3063
2023-03-29T05:50:46.727Z,63.5319
2023-03-29T05:51:45.350Z,63.0109
2023-03-29T05:53:47.069Z,63.6470
2023-03-29T05:55:49.703Z,65.2701
2023-03-29T05:56:50.582Z,65.3966
2023-03-29T05:57:51.400Z,64.5289
2023-03-29T05:58:55.313Z,65.3848
2023-03-29T06:03:56.784Z,65.4816
2023-03-29T06:04:57.774Z,66.5814
2023-03-29T06:05:58.528Z,65.4020
2023-03-29T06:06:59.424Z,65.4275
2023-03-29T06:08:00.473Z,67.2278
2023-03-29T06:09:01.339Z,66.2339
2023-03-29T06:10:02.094Z,67.5514
2023-03-29T06:11:05.538Z,66.3989
2023-03-29T06:12:04.534Z,64.5437
2023-03-29T06:13:05.404Z,64.5578
2023-03-29T06:14:06.230Z,65.3487
2023-03-29T06:15:06.998Z,63.1997
2023-03-29T06:16:07.815Z,64.4343
2023-03-29T06:17:08.712Z,64.9470
2023-03-29T06:18:09.515Z,65.3943
2023-03-29T06:19:10.266Z,65.2982
2023-03-29T06:20:11.069Z,63.8362
2023-03-29T06:21:12.967Z,62.2377
2023-03-29T06:23:16.106Z,62.7303
2023-03-29T06:24:16.963Z,61.2315
2023-03-29T06:25:17.919Z,62.4851
2023-03-29T06:26:18.715Z,62.9611
2023-03-29T06:27:19.478Z,64.0974
2023-03-29T06:28:20.235Z,61.0363
2023-03-29T06:29:21.045Z,62.8397
2023-03-29T06:30:21.794Z,62.3886
2023-03-29T06:31:22.685Z,64.2223
2023-03-29T06:32:23.611Z,62.9424
2023-03-29T06:33:24.416Z,64.5962
2023-03-29T06:34:25.227Z,65.1992
2023-03-29T06:35:26.002Z,62.6867
2023-03-29T06:37:27.729Z,62.5137
2023-03-29T06:38:28.778Z,62.1306
2023-03-29T06:39:29.519Z,61.1137
2023-03-29T06:40:30.287Z,62.9943
2023-03-29T06:41:31.155Z,62.6718
2023-03-29T06:42:31.934Z,62.0267
2023-03-29T06:43:32.709Z,62.5082
2023-03-29T06:44:33.850Z,61.8843
2023-03-29T06:45:34.865Z,61.8718
2023-03-29T06:46:35.718Z,60.1698
2023-03-29T06:47:36.556Z,60.8714
2023-03-29T06:48:37.375Z,61.2499
2023-03-29T06:49:38.189Z,61.1296
2023-03-29T06:50:38.953Z,60.2376
2023-03-29T06:51:39.733Z,60.1286
2023-03-29T06:52:40.557Z,60.2042
2023-03-29T06:53:41.342Z,61.4973
2023-03-29T06:55:42.764Z,61.1029
2023-03-29T06:57:44.274Z,62.0094
2023-03-29T06:58:45.103Z,61.5788
2023-03-29T06:59:45.907Z,59.8879
2023-03-29T07:01:47.504Z,59.1814
2023-03-29T07:02:48.252Z,60.4357
2023-03-29T07:03:49.088Z,60.8294
2023-03-29T07:04:49.939Z,60.0145
2023-03-29T07:05:50.671Z,60.0188
2023-03-29T07:07:52.101Z,60.6932
2023-03-29T07:08:52.936Z,61.9962
2023-03-29T07:09:53.741Z,62.1984
2023-03-29T07:11:56.196Z,68.7716
2023-03-29T07:12:56.969Z,70.0638
2023-03-29T07:13:57.755Z,68.6306
2023-03-29T07:14:58.557Z,67.9443
2023-03-29T07:15:59.465Z,71.9742
2023-03-29T07:17:00.277Z,69.5508
2023-03-29T07:18:01.159Z,70.3055
2023-03-29T07:19:01.912Z,72.1471
2023-03-29T07:21:03.557Z,72.5038
2023-03-29T07:22:04.378Z,70.9442
2023-03-29T07:23:05.159Z,72.3026
2023-03-29T07:24:05.928Z,72.3847
2023-03-29T07:26:07.443Z,70.0871
2023-03-29T07:27:08.205Z,72.1445
2023-03-29T07:28:08.969Z,71.0476
2023-03-29T07:29:09.746Z,70.4708
2023-03-29T07:30:10.529Z,69.1516
2023-03-29T07:31:11.677Z,70.4373
2023-03-29T07:33:13.852Z,71.8172
2023-03-29T07:34:14.644Z,68.6805
2023-03-29T07:35:15.427Z,71.7877
2023-03-29T07:36:16.267Z,71.0103
2023-03-29T07:37:17.121Z,71.8966
2023-03-29T07:38:17.896Z,71.6230
2023-03-29T07:39:18.724Z,72.4659
2023-03-29T07:40:19.512Z,71.0900
2023-03-29T07:41:20.282Z,72.8054
2023-03-29T07:42:21.072Z,72.3059
2023-03-29T07:43:21.860Z,71.7556
2023-03-29T07:44:22.642Z,64.8086
2023-03-29T07:45:29.356Z,70.3957
2023-03-29T07:51:29.214Z,70.5028
2023-03-29T07:53:31.820Z,69.3706
2023-03-29T07:54:32.607Z,70.6732
2023-03-29T07:55:33.406Z,69.4331
2023-03-29T07:56:34.203Z,67.3982
2023-03-29T07:57:34.956Z,66.3188
2023-03-29T07:58:35.774Z,67.1520
2023-03-29T07:59:36.515Z,65.4702
2023-03-29T08:00:37.300Z,63.0690
2023-03-29T08:01:38.049Z,63.7029
2023-03-29T08:02:38.810Z,66.0319
2023-03-29T08:03:39.646Z,66.9095
2023-03-29T08:04:40.445Z,65.7253
2023-03-29T08:05:42.606Z,67.4384
2023-03-29T08:08:42.639Z,68.4190
2023-03-29T08:09:43.458Z,65.6688
2023-03-29T08:10:44.196Z,66.2042
2023-03-29T08:11:44.940Z,66.6430
2023-03-29T08:12:45.727Z,64.7187
2023-03-29T08:13:46.466Z,65.5956
2023-03-29T08:14:47.227Z,66.9691
2023-03-29T08:15:48.036Z,69.2473
2023-03-29T08:16:48.859Z,68.3830
2023-03-29T08:17:49.664Z,67.7791
2023-03-29T08:18:50.516Z,68.2994
2023-03-29T08:19:52.743Z,69.0229
2023-03-29T08:21:52.054Z,68.4403
2023-03-29T08:23:53.459Z,69.8151
2023-03-29T08:24:54.239Z,69.3848
2023-03-29T08:25:55.060Z,68.6904
2023-03-29T08:26:55.893Z,69.6026
2023-03-29T08:27:56.807Z,69.7911
2023-03-29T08:28:57.581Z,69.8334
2023-03-29T08:29:58.336Z,69.1489
2023-03-29T08:30:59.216Z,70.2980
2023-03-29T08:31:59.954Z,69.0423
2023-03-29T08:33:00.829Z,66.8930
2023-03-29T08:34:01.602Z,65.0223
2023-03-29T08:35:02.386Z,69.2187
2023-03-29T08:36:03.211Z,67.2254
2023-03-29T08:37:03.968Z,65.2307
2023-03-29T08:38:04.778Z,67.3019
2023-03-29T08:39:05.550Z,66.8385
2023-03-29T08:41:07.000Z,65.2307
2023-03-29T08:42:07.824Z,64.9115
2023-03-29T08:43:08.622Z,65.7247
2023-03-29T08:44:09.387Z,64.7881
2023-03-29T08:45:10.143Z,64.5309
2023-03-29T08:46:10.930Z,64.3381
2023-03-29T08:47:11.701Z,61.9633
2023-03-29T08:48:12.489Z,63.9360
2023-03-29T08:49:13.290Z,62.9981
2023-03-29T08:50:14.103Z,65.8046
2023-03-29T08:51:14.849Z,61.3340
2023-03-29T08:52:15.640Z,63.9688
2023-03-29T08:53:16.429Z,64.8852
2023-03-29T08:54:17.219Z,63.6805
2023-03-29T08:55:17.993Z,61.4584
2023-03-29T08:56:18.760Z,61.2926
2023-03-29T08:57:19.699Z,62.5568
2023-03-29T08:58:20.511Z,60.8048
2023-03-29T08:59:21.301Z,62.5163
2023-03-29T09:00:22.043Z,62.6448
2023-03-29T09:01:22.996Z,61.4659
2023-03-29T09:02:24.357Z,60.6449
2023-03-29T09:03:25.321Z,61.7448
2023-03-29T09:04:26.183Z,60.8220
2023-03-29T09:05:26.986Z,59.4055
2023-03-29T09:06:27.884Z,59.6131
2023-03-29T09:08:29.365Z,60.4729
2023-03-29T09:10:30.918Z,59.6642
2023-03-29T09:12:32.319Z,60.4474
2023-03-29T09:13:33.239Z,59.5079
2023-03-29T09:14:33.982Z,61.0490
2023-03-29T09:15:34.783Z,61.0478
2023-03-29T09:16:35.686Z,60.5006
2023-03-29T09:17:36.477Z,60.4755
2023-03-29T09:18:37.331Z,61.5884
2023-03-29T09:19:38.194Z,61.9682
2023-03-29T09:20:39.005Z,62.1233
2023-03-29T09:21:39.786Z,64.0717
2023-03-29T09:22:40.552Z,63.9317
2023-03-29T09:23:41.373Z,61.3596
2023-03-29T09:29:47.044Z,61.8715
2023-03-29T09:30:47.833Z,61.6831
2023-03-29T09:31:48.727Z,61.4700
2023-03-29T09:32:49.537Z,61.8506
2023-03-29T09:33:50.272Z,62.5021
2023-03-29T09:34:51.044Z,62.2117
2023-03-29T09:35:51.926Z,62.6841
2023-03-29T09:36:52.832Z,63.7400
2023-03-29T09:37:53.589Z,63.6014
2023-03-29T09:38:54.600Z,62.9076
2023-03-29T09:39:55.349Z,64.6767
2023-03-29T09:40:56.202Z,66.0327
2023-03-29T09:41:56.953Z,65.3855
2023-03-29T09:42:57.707Z,63.3737
2023-03-29T09:43:58.541Z,63.9171
2023-03-29T09:44:59.332Z,62.0226
2023-03-29T09:46:00.321Z,65.3483
2023-03-29T09:47:01.120Z,64.0291
2023-03-29T09:48:01.928Z,65.4591
2023-03-29T09:49:02.688Z,60.6646
2023-03-29T09:50:03.482Z,63.2661
2023-03-29T09:51:05.067Z,61.7711
2023-03-29T09:52:05.887Z,63.3210
2023-03-29T09:53:06.668Z,60.9066
2023-03-29T09:54:07.460Z,61.4012
2023-03-29T09:56:09.111Z,61.0652
2023-03-29T09:57:10.073Z,60.8894
2023-03-29T09:58:10.878Z,62.2882
2023-03-29T09:59:11.680Z,63.5110
2023-03-29T10:00:12.481Z,63.1991
2023-03-29T10:01:13.289Z,62.3262
2023-03-29T10:02:14.011Z,62.2087
2023-03-29T10:03:14.840Z,58.8134
2023-03-29T10:04:15.636Z,63.1364
2023-03-29T10:05:16.392Z,62.6122
2023-03-29T10:06:17.181Z,62.2783
2023-03-29T10:07:17.955Z,62.0996
2023-03-29T10:19:27.322Z,59.3389
2023-03-29T10:20:28.096Z,60.4444
2023-03-29T10:21:28.853Z,57.8450
2023-03-29T10:22:29.651Z,59.7550
2023-03-29T10:23:30.426Z,57.3202
2023-03-29T10:24:31.162Z,57.3335
2023-03-29T10:25:31.922Z,58.8693
2023-03-29T10:26:32.730Z,60.3208
2023-03-29T10:27:33.488Z,59.5007
2023-03-29T10:28:34.265Z,60.3390
2023-03-29T10:29:35.065Z,60.0793
2023-03-29T10:30:35.885Z,58.7888
2023-03-29T10:31:36.695Z,58.3709
2023-03-29T10:33:38.144Z,58.5926
2023-03-29T10:34:38.987Z,57.7687
2023-03-29T10:35:39.778Z,56.1551
2023-03-29T10:36:40.568Z,57.5687
2023-03-29T10:37:41.341Z,56.5887
2023-03-29T10:38:42.100Z,54.5147
2023-03-29T10:39:42.879Z,50.7708
2023-03-29T10:40:43.666Z,53.4551
2023-03-29T10:41:44.467Z,53.5273
2023-03-29T10:42:45.255Z,51.0451
2023-03-29T10:43:46.280Z,50.6424
2023-03-29T10:45:47.747Z,54.2310
2023-03-29T10:46:48.479Z,55.1147
2023-03-29T10:48:49.982Z,54.7734
2023-03-29T10:50:51.971Z,53.5477
2023-03-29T10:51:52.719Z,50.2043
2023-03-29T10:52:53.456Z,51.8108
2023-03-29T10:53:54.293Z,51.8715
2023-03-29T10:54:55.088Z,52.9442
2023-03-29T10:55:55.879Z,58.9472
2023-03-29T10:56:56.793Z,56.2371
2023-03-29T10:57:57.548Z,57.7524
2023-03-29T10:58:58.324Z,60.1246
2023-03-29T10:59:59.085Z,59.4721
2023-03-29T11:01:00.299Z,60.5687
2023-03-29T11:02:01.326Z,60.4563
2023-03-29T11:03:02.198Z,62.8755
2023-03-29T11:04:03.192Z,63.1558
2023-03-29T11:05:04.058Z,63.7964
2023-03-29T11:06:04.861Z,61.4997
2023-03-29T11:07:05.676Z,61.5673
2023-03-29T11:08:06.454Z,59.9470
2023-03-29T11:09:07.279Z,58.6475
2023-03-29T11:10:08.100Z,59.5321
2023-03-29T11:11:08.859Z,56.7021
2023-03-29T11:12:16.542Z,57.0570
2023-03-29T11:13:10.645Z,55.9881
2023-03-29T11:15:12.086Z,52.7218
2023-03-29T11:16:12.906Z,52.3316
2023-03-29T11:17:13.705Z,53.4160
2023-03-29T11:18:14.468Z,52.0373
2023-03-29T11:19:15.238Z,53.4081
2023-03-29T11:20:16.058Z,51.4242
2023-03-29T11:21:16.852Z,52.7237
2023-03-29T11:22:17.663Z,51.1855
2023-03-29T11:23:18.465Z,51.4147
2023-03-29T11:24:19.285Z,51.9768
2023-03-29T11:25:20.105Z,51.4637
2023-03-29T11:26:20.882Z,52.0621
2023-03-29T11:27:21.705Z,51.4539
2023-03-29T11:29:23.216Z,47.1672
2023-03-29T11:31:24.999Z,49.8625
2023-03-29T11:32:25.946Z,45.4166
2023-03-29T11:33:26.689Z,45.5567
2023-03-29T11:34:27.486Z,46.6431
2023-03-29T11:35:28.276Z,46.0530
2023-03-29T11:36:29.089Z,46.1338
2023-03-29T11:37:29.829Z,43.4262
2023-03-29T11:38:30.625Z,45.2883
2023-03-29T11:39:32.438Z,46.8194
2023-03-29T11:40:33.370Z,45.6096
2023-03-29T11:41:34.179Z,44.9488
2023-03-29T11:42:34.984Z,44.6481
2023-03-29T11:43:35.783Z,44.3693
2023-03-29T11:44:36.626Z,43.4166
2023-03-29T11:45:37.440Z,44.2566
2023-03-29T11:46:38.380Z,45.4979
2023-03-29T11:47:39.156Z,47.0728
2023-03-29T11:48:39.938Z,48.6341
2023-03-29T11:49:40.725Z,47.5958
2023-03-29T11:50:41.536Z,48.4604
2023-03-29T11:51:42.337Z,46.6163
2023-03-29T11:53:43.841Z,48.1798
2023-03-29T11:54:44.791Z,48.9711
2023-03-29T11:55:45.570Z,47.6579
2023-03-29T11:56:46.431Z,50.4172
2023-03-29T11:57:47.187Z,50.3892
2023-03-29T11:58:48.002Z,49.5091
2023-03-29T11:59:48.805Z,51.5693
2023-03-29T12:00:49.566Z,50.8265
2023-03-29T12:01:50.407Z,51.2496
2023-03-29T12:02:51.355Z,51.7102
2023-03-29T12:03:52.372Z,52.8628
2023-03-29T12:04:53.208Z,51.5881
2023-03-29T12:05:54.003Z,52.3462
2023-03-29T12:06:54.835Z,51.8190
2023-03-29T12:07:55.646Z,51.9892
2023-03-29T12:08:56.404Z,51.8211
2023-03-29T12:09:57.202Z,52.2328
2023-03-29T12:10:57.991Z,53.8012
2023-03-29T12:11:58.852Z,53.4556
2023-03-29T12:12:59.638Z,54.1136
2023-03-29T12:14:00.424Z,54.1488
2023-03-29T12:15:01.259Z,53.7794
2023-03-29T12:16:02.122Z,53.8970
2023-03-29T12:17:03.183Z,55.5456
2023-03-29T12:19:05.039Z,55.8872
2023-03-29T12:20:05.833Z,56.0072
2023-03-29T12:23:08.208Z,54.9123
2023-03-29T12:24:09.104Z,56.3151
2023-03-29T12:25:10.662Z,56.6896
2023-03-29T12:26:11.456Z,58.1217
2023-03-29T12:27:12.231Z,59.7877
2023-03-29T12:28:13.025Z,58.7610
2023-03-29T12:30:14.558Z,58.9241
2023-03-29T12:31:15.363Z,58.7173
2023-03-29T12:32:16.382Z,59.8267
2023-03-29T12:33:17.280Z,56.7304
2023-03-29T12:34:18.121Z,56.6816
2023-03-29T12:35:18.919Z,54.5660
2023-03-29T12:36:19.685Z,55.6303
2023-03-29T12:37:20.512Z,55.6580
2023-03-29T12:39:21.973Z,57.4353
2023-03-29T12:40:22.800Z,57.1679
2023-03-29T12:41:23.579Z,56.0981
2023-03-29T12:42:24.357Z,53.5020
2023-03-29T12:43:25.124Z,55.1551
2023-03-29T12:44:25.949Z,55.1809
2023-03-29T12:45:26.802Z,55.8286
2023-03-29T12:46:27.830Z,54.0228
2023-03-29T12:47:28.706Z,55.8424
2023-03-29T12:49:30.173Z,51.2932
2023-03-29T12:50:30.931Z,48.4242
2023-03-29T12:51:31.721Z,49.0871
2023-03-29T12:52:32.522Z,50.4111
2023-03-29T12:53:33.302Z,49.7529
2023-03-29T12:54:34.126Z,49.2865
2023-03-29T12:55:34.901Z,52.1922
2023-03-29T12:56:35.680Z,53.3416
2023-03-29T12:57:36.464Z,53.9127
2023-03-29T12:59:38.038Z,57.7516
2023-03-29T13:00:39.038Z,56.2433
2023-03-29T13:01:40.079Z,57.4112
2023-03-29T13:02:41.726Z,55.9935
2023-03-29T13:03:42.521Z,57.2713
2023-03-29T13:04:43.352Z,57.9456
2023-03-29T13:05:44.210Z,56.5620
2023-03-29T13:09:47.160Z,53.6616
2023-03-29T13:10:47.994Z,53.0405
2023-03-29T13:11:48.818Z,51.9597
2023-03-29T13:12:49.662Z,54.4567
2023-03-29T13:13:50.476Z,54.2163
2023-03-29T13:14:51.228Z,55.0095
2023-03-29T13:15:52.085Z,52.9207
2023-03-29T13:16:52.861Z,52.3623
2023-03-29T13:17:53.783Z,52.1053
2023-03-29T13:18:54.553Z,53.4199
2023-03-29T13:19:55.386Z,52.7341
2023-03-29T13:20:56.150Z,52.0785
2023-03-29T13:21:56.959Z,51.5968
2023-03-29T13:22:57.773Z,51.4428
2023-03-29T13:23:58.569Z,52.7099
2023-03-29T13:24:59.385Z,53.1797
2023-03-29T13:26:00.681Z,52.7352
2023-03-29T13:27:01.535Z,52.4789
2023-03-29T13:28:02.337Z,54.4628
2023-03-29T13:29:03.168Z,53.8758
2023-03-29T13:30:03.969Z,55.8344
2023-03-29T13:31:04.754Z,57.2313
2023-03-29T13:32:05.529Z,57.3854
2023-03-29T13:33:06.443Z,56.7490
2023-03-29T13:34:07.283Z,57.0192
2023-03-29T13:35:08.052Z,57.7426
2023-03-29T13:36:09.035Z,56.1968
2023-03-29T13:37:09.782Z,58.2078
2023-03-29T13:38:10.606Z,58.6985
2023-03-29T13:39:11.367Z,54.7545
2023-03-29T13:40:12.172Z,56.7407
2023-03-29T13:47:17.694Z,55.8497
2023-03-29T13:48:18.523Z,56.2567
2023-03-29T13:49:19.331Z,55.4833
2023-03-29T13:50:20.112Z,55.9351
2023-03-29T13:51:20.920Z,52.4583
2023-03-29T13:52:21.681Z,52.2319
2023-03-29T13:53:22.521Z,53.3776
2023-03-29T13:54:23.311Z,51.9817
2023-03-29T13:55:24.110Z,52.4388
2023-03-29T13:56:24.932Z,50.7167